createdAt,value
2018-11-27T00:00:20.057Z,1.80
2018-11-27T00:02:48.419Z,1.60
2018-11-27T00:05:16.665Z,1.60
2018-11-27T00:07:44.944Z,1.50
2018-11-27T00:10:13.147Z,1.50
2018-11-27T00:12:41.375Z,1.60
2018-11-27T00:15:11.581Z,1.50
2018-11-27T00:17:39.790Z,1.50
2018-11-27T00:20:11.022Z,1.60
2018-11-27T00:22:39.369Z,1.70
2018-11-27T00:25:13.546Z,1.60
2018-11-27T00:27:41.794Z,1.60
2018-11-27T00:30:14.063Z,1.60
2018-11-27T00:32:42.573Z,1.60
2018-11-27T00:35:12.664Z,1.40
2018-11-27T00:37:41.033Z,1.50
2018-11-27T00:40:11.996Z,1.50
2018-11-27T00:42:40.214Z,1.50
2018-11-27T00:45:13.760Z,1.50
2018-11-27T00:47:42.723Z,1.50
2018-11-27T00:50:13.253Z,1.50
2018-11-27T00:52:41.835Z,1.60
2018-11-27T00:55:11.365Z,1.50
2018-11-27T00:57:40.246Z,1.40
2018-11-27T01:00:13.600Z,1.40
2018-11-27T01:02:41.834Z,1.30
2018-11-27T01:05:11.534Z,1.40
2018-11-27T01:07:39.799Z,1.40
2018-11-27T01:10:13.292Z,1.50
2018-11-27T01:12:41.566Z,1.50
2018-11-27T01:15:10.947Z,1.40
2018-11-27T01:17:40.353Z,1.40
2018-11-27T01:20:15.613Z,1.30
2018-11-27T01:22:43.835Z,1.30
2018-11-27T01:25:12.407Z,1.20
2018-11-27T01:27:40.609Z,1.30
2018-11-27T01:30:11.902Z,1.40
2018-11-27T01:32:40.213Z,1.40
2018-11-27T01:35:10.858Z,1.30
2018-11-27T01:37:39.124Z,1.30
2018-11-27T01:40:10.000Z,1.30
2018-11-27T01:42:38.463Z,1.20
2018-11-27T01:45:09.226Z,1.30
2018-11-27T01:47:37.462Z,1.40
2018-11-27T01:50:08.165Z,1.40
2018-11-27T01:52:36.410Z,1.30
2018-11-27T01:55:05.118Z,1.40
2018-11-27T01:57:33.413Z,1.30
2018-11-27T02:00:01.651Z,1.30
2018-11-27T02:02:29.868Z,1.40
2018-11-27T02:04:58.074Z,1.40
2018-11-27T02:07:26.278Z,1.40
2018-11-27T02:09:54.531Z,1.30
2018-11-27T02:12:22.731Z,1.30
2018-11-27T02:14:50.946Z,1.30
2018-11-27T02:17:19.198Z,1.40
2018-11-27T02:19:48.687Z,1.40
2018-11-27T02:22:16.915Z,1.40
2018-11-27T02:24:45.211Z,1.40
2018-11-27T02:27:13.565Z,1.40
2018-11-27T02:29:41.759Z,1.30
2018-11-27T02:32:09.941Z,1.40
2018-11-27T02:34:38.140Z,1.40
2018-11-27T02:37:06.412Z,1.20
2018-11-27T02:39:34.627Z,1.30
2018-11-27T02:42:02.830Z,1.30
2018-11-27T02:44:31.039Z,1.40
2018-11-27T02:46:59.318Z,1.30
2018-11-27T02:49:27.940Z,1.30
2018-11-27T02:51:56.229Z,1.30
2018-11-27T02:54:24.414Z,1.40
2018-11-27T02:56:52.655Z,1.30
2018-11-27T02:59:20.845Z,1.30
2018-11-27T03:01:49.026Z,1.30
2018-11-27T03:04:17.201Z,1.10
2018-11-27T03:06:45.780Z,1.10
2018-11-27T03:09:14.005Z,1.20
2018-11-27T03:11:42.267Z,1.20
2018-11-27T03:14:11.098Z,1.20
2018-11-27T03:16:39.382Z,1.20
2018-11-27T03:19:07.582Z,1.40
2018-11-27T03:21:35.878Z,1.50
2018-11-27T03:24:04.382Z,1.50
2018-11-27T03:26:32.614Z,1.50
2018-11-27T03:29:00.893Z,1.30
2018-11-27T03:31:29.224Z,1.30
2018-11-27T03:51:14.631Z,1.80
2018-11-27T03:53:42.858Z,1.50
2018-11-27T03:56:11.064Z,1.40
2018-11-27T03:58:39.310Z,1.40
2018-11-27T04:01:07.540Z,1.30
2018-11-27T04:03:35.817Z,1.40
2018-11-27T04:06:04.110Z,1.40
2018-11-27T04:08:32.339Z,1.30
2018-11-27T04:11:00.549Z,1.50
2018-11-27T04:13:28.790Z,1.50
2018-11-27T04:15:57.012Z,1.40
2018-11-27T04:18:25.278Z,1.30
2018-11-27T04:20:53.538Z,1.30
2018-11-27T04:23:21.831Z,1.20
2018-11-27T04:25:50.034Z,1.10
2018-11-27T04:28:18.284Z,1.10
2018-11-27T04:30:46.488Z,1.10
2018-11-27T04:33:14.710Z,1.10
2018-11-27T04:35:42.928Z,1.10
2018-11-27T04:38:11.249Z,1.00
2018-11-27T04:40:39.508Z,1.00
2018-11-27T04:43:07.788Z,1.00
2018-11-27T04:45:36.027Z,1.00
2018-11-27T04:48:04.283Z,1.00
2018-11-27T04:50:32.631Z,1.00
2018-11-27T04:53:00.927Z,1.00
2018-11-27T04:55:29.182Z,1.00
2018-11-27T04:57:57.521Z,1.10
2018-11-27T05:00:26.438Z,1.00
2018-11-27T05:02:54.764Z,1.10
2018-11-27T05:05:23.139Z,1.20
2018-11-27T05:07:51.481Z,1.20
2018-11-27T05:10:21.934Z,1.10
2018-11-27T05:12:50.162Z,1.20
2018-11-27T05:15:19.322Z,1.30
2018-11-27T05:17:48.704Z,1.50
2018-11-27T05:20:16.928Z,1.50
2018-11-27T05:22:45.180Z,1.50
2018-11-27T05:25:14.410Z,1.40
2018-11-27T05:27:50.676Z,1.40
2018-11-27T05:30:21.820Z,1.40
2018-11-27T05:32:50.104Z,1.40
2018-11-27T05:35:21.594Z,1.40
2018-11-27T05:37:50.162Z,1.40
2018-11-27T05:40:19.571Z,1.40
2018-11-27T05:42:49.036Z,1.30
2018-11-27T05:45:18.325Z,1.40
2018-11-27T05:47:46.606Z,1.40
2018-11-27T05:50:15.799Z,1.40
2018-11-27T05:52:44.118Z,1.20
2018-11-27T06:12:29.100Z,1.40
2018-11-27T06:14:57.513Z,1.40
2018-11-27T06:17:25.143Z,1.30
2018-11-27T06:19:52.683Z,1.30
2018-11-27T06:22:20.258Z,1.10
2018-11-27T06:24:47.807Z,1.00
2018-11-27T06:27:15.316Z,1.10
2018-11-27T06:29:43.074Z,1.10
2018-11-27T06:32:10.676Z,1.00
2018-11-27T06:34:38.261Z,1.00
2018-11-27T06:37:05.793Z,1.00
2018-11-27T06:39:33.439Z,1.00
2018-11-27T06:42:00.993Z,1.10
2018-11-27T06:44:28.527Z,1.00
2018-11-27T06:46:56.046Z,1.00
2018-11-27T06:49:23.549Z,1.00
2018-11-27T06:51:51.152Z,1.00
2018-11-27T06:54:18.780Z,1.10
2018-11-27T06:56:46.309Z,1.10
2018-11-27T06:59:13.877Z,1.10
2018-11-27T07:01:41.405Z,1.10
2018-11-27T07:04:09.061Z,1.20
2018-11-27T07:06:36.793Z,1.10
2018-11-27T07:09:06.367Z,1.10
2018-11-27T07:11:33.973Z,1.10
2018-11-27T07:14:01.758Z,1.20
2018-11-27T07:16:29.309Z,1.20
2018-11-27T07:18:56.965Z,1.30
2018-11-27T07:21:24.534Z,1.50
2018-11-27T07:23:52.133Z,1.40
2018-11-27T07:26:19.679Z,1.40
2018-11-27T07:28:47.215Z,1.40
2018-11-27T07:31:14.783Z,1.40
2018-11-27T07:33:42.418Z,1.40
2018-11-27T07:36:10.036Z,1.50
2018-11-27T07:38:37.577Z,1.50
2018-11-27T07:41:05.357Z,1.50
2018-11-27T07:43:32.949Z,1.60
2018-11-27T07:46:00.483Z,1.60
2018-11-27T07:48:28.024Z,1.60
2018-11-27T07:50:55.574Z,1.60
2018-11-27T07:53:23.106Z,1.70
2018-11-27T07:55:50.680Z,1.70
2018-11-27T07:58:18.230Z,1.70
2018-11-27T08:00:45.784Z,1.80
2018-11-27T08:03:13.289Z,1.80
2018-11-27T08:05:41.087Z,1.90
2018-11-27T08:08:09.697Z,1.90
2018-11-27T08:10:37.257Z,2.00
2018-11-27T08:13:05.411Z,1.80
2018-11-27T08:15:32.975Z,1.60
2018-11-27T08:18:00.499Z,1.50
2018-11-27T08:20:29.602Z,1.40
2018-11-27T08:22:58.263Z,1.30
2018-11-27T08:25:25.870Z,1.30
2018-11-27T08:27:53.418Z,1.30
2018-11-27T08:30:21.299Z,1.40
2018-11-27T08:32:49.018Z,1.40
2018-11-27T08:35:19.115Z,1.40
2018-11-27T08:37:47.016Z,1.40
2018-11-27T08:40:15.148Z,1.40
2018-11-27T08:42:42.685Z,1.50
2018-11-27T08:45:10.860Z,1.60
2018-11-27T08:47:38.431Z,1.70
2018-11-27T08:50:07.412Z,1.70
2018-11-27T08:52:35.032Z,1.80
2018-11-27T08:55:02.551Z,1.90
2018-11-27T08:57:30.076Z,2.10
2018-11-27T08:59:57.607Z,2.20
2018-11-27T09:02:25.135Z,2.30
2018-11-27T09:04:52.644Z,2.20
2018-11-27T09:07:20.180Z,2.20
2018-11-27T09:09:47.750Z,2.10
2018-11-27T09:12:15.307Z,2.30
2018-11-27T09:14:42.870Z,2.30
2018-11-27T09:17:10.409Z,2.50
2018-11-27T09:19:38.003Z,2.60
2018-11-27T09:22:05.570Z,2.60
2018-11-27T09:24:33.083Z,2.80
2018-11-27T09:27:00.643Z,2.90
2018-11-27T09:29:28.156Z,3.00
2018-11-27T09:31:55.676Z,3.10
2018-11-27T09:34:23.198Z,3.10
2018-11-27T09:36:50.745Z,3.20
2018-11-27T09:39:18.315Z,3.40
2018-11-27T09:41:45.854Z,3.50
2018-11-27T09:44:13.417Z,3.50
2018-11-27T09:46:41.003Z,3.50
2018-11-27T09:49:08.578Z,3.50
2018-11-27T09:51:36.276Z,3.50
2018-11-27T09:54:03.826Z,3.40
2018-11-27T09:56:31.391Z,3.40
2018-11-27T09:58:58.982Z,3.30
2018-11-27T10:01:26.593Z,3.30
2018-11-27T10:03:55.425Z,3.30
2018-11-27T10:06:21.754Z,3.20
2018-11-27T10:08:49.290Z,3.20
2018-11-27T10:11:16.953Z,3.00
2018-11-27T10:13:44.569Z,3.00
2018-11-27T10:16:12.095Z,3.00
2018-11-27T10:18:39.657Z,3.10
2018-11-27T10:22:36.483Z,3.20
2018-11-27T10:25:04.471Z,3.30
2018-11-27T10:27:32.021Z,3.40
2018-11-27T10:29:59.652Z,3.30
2018-11-27T10:32:27.238Z,3.30
2018-11-27T10:34:55.013Z,3.40
2018-11-27T10:37:22.569Z,3.50
2018-11-27T10:39:50.120Z,3.50
2018-11-27T10:42:17.644Z,3.60
2018-11-27T10:44:45.159Z,3.60
2018-11-27T10:47:12.905Z,3.70
2018-11-27T10:49:40.424Z,3.60
2018-11-27T10:52:07.977Z,3.50
2018-11-27T11:11:13.430Z,3.90
2018-11-27T11:13:40.917Z,3.90
2018-11-27T11:16:08.484Z,4.00
2018-11-27T11:18:36.055Z,4.10
2018-11-27T11:21:03.638Z,4.10
2018-11-27T11:23:31.291Z,4.10
2018-11-27T11:25:58.825Z,4.10
2018-11-27T11:28:27.161Z,4.10
2018-11-27T11:30:54.773Z,4.10
2018-11-27T11:33:22.278Z,4.30
2018-11-27T11:35:49.790Z,4.40
2018-11-27T11:38:17.310Z,4.50
2018-11-27T11:40:44.869Z,4.60
2018-11-27T11:43:12.451Z,4.60
2018-11-27T11:45:40.029Z,4.60
2018-11-27T11:48:07.625Z,4.60
2018-11-27T11:50:35.244Z,4.60
2018-11-27T11:53:03.354Z,4.50
2018-11-27T11:55:30.868Z,4.30
2018-11-27T11:57:58.538Z,4.40
2018-11-27T12:00:30.501Z,4.50
2018-11-27T12:02:58.099Z,4.40
2018-11-27T12:05:25.794Z,4.20
2018-11-27T12:07:53.401Z,4.00
2018-11-27T12:10:20.916Z,4.00
2018-11-27T12:12:48.463Z,4.10
2018-11-27T12:15:17.241Z,4.00
2018-11-27T12:17:45.152Z,3.90
2018-11-27T12:20:14.135Z,3.70
2018-11-27T12:22:42.306Z,3.80
2018-11-27T12:25:10.463Z,3.60
2018-11-27T12:27:38.248Z,3.50
2018-11-27T12:30:08.958Z,3.60
2018-11-27T12:32:36.573Z,3.80
2018-11-27T12:35:04.219Z,3.90
2018-11-27T12:37:31.741Z,3.90
2018-11-27T12:39:59.339Z,3.90
2018-11-27T12:42:26.948Z,3.90
2018-11-27T12:44:54.482Z,4.00
2018-11-27T12:47:22.009Z,4.20
2018-11-27T12:49:49.503Z,4.20
2018-11-27T12:52:17.069Z,4.30
2018-11-27T12:54:44.587Z,4.30
2018-11-27T12:57:12.258Z,4.30
2018-11-27T12:59:40.029Z,4.30
2018-11-27T13:02:07.384Z,4.30
2018-11-27T13:04:34.931Z,4.30
2018-11-27T13:07:02.452Z,4.40
2018-11-27T13:09:30.143Z,4.30
2018-11-27T13:11:57.720Z,4.20
2018-11-27T13:14:25.251Z,4.30
2018-11-27T13:16:52.759Z,4.40
2018-11-27T13:19:20.268Z,4.30
2018-11-27T13:21:47.899Z,4.10
2018-11-27T13:24:15.427Z,4.20
2018-11-27T13:26:43.132Z,4.10
2018-11-27T13:29:10.787Z,4.10
2018-11-27T13:31:38.382Z,4.10
2018-11-27T13:34:07.082Z,4.10
2018-11-27T13:36:34.805Z,4.10
2018-11-27T13:39:07.972Z,4.00
2018-11-27T13:41:35.505Z,3.90
2018-11-27T13:44:03.193Z,3.80
2018-11-27T13:46:30.692Z,3.70
2018-11-27T13:48:58.233Z,3.70
2018-11-27T13:51:25.835Z,3.70
2018-11-27T13:53:53.373Z,3.70
2018-11-27T13:56:20.945Z,3.70
2018-11-27T13:58:48.875Z,3.60
2018-11-27T14:01:16.387Z,3.60
2018-11-27T14:03:43.939Z,3.50
2018-11-27T14:06:11.467Z,3.50
2018-11-27T14:08:38.995Z,3.40
2018-11-27T14:11:06.564Z,3.30
2018-11-27T14:13:34.127Z,3.40
2018-11-27T14:16:01.673Z,3.40
2018-11-27T14:18:29.227Z,3.50
2018-11-27T14:20:56.731Z,3.50
2018-11-27T14:23:24.418Z,3.40
2018-11-27T14:25:52.033Z,3.50
2018-11-27T14:28:19.833Z,3.60
2018-11-27T14:30:47.399Z,3.60
2018-11-27T14:33:15.078Z,3.70
2018-11-27T14:35:42.619Z,3.80
2018-11-27T14:38:10.291Z,3.80
2018-11-27T14:40:38.122Z,3.90
2018-11-27T14:49:50.288Z,3.70
2018-11-27T14:52:17.951Z,3.70
2018-11-27T14:54:45.765Z,3.70
2018-11-27T14:57:13.492Z,3.60
2018-11-27T14:59:41.234Z,3.60
2018-11-27T15:02:08.993Z,3.70
2018-11-27T15:04:36.915Z,3.80
2018-11-27T15:07:04.810Z,3.90
2018-11-27T15:09:32.395Z,3.70
2018-11-27T15:12:00.070Z,3.70
2018-11-27T15:14:27.650Z,3.70
2018-11-27T15:16:55.255Z,3.60
2018-11-27T15:19:22.873Z,3.60
2018-11-27T15:21:50.410Z,3.60
2018-11-27T15:24:17.995Z,3.60
2018-11-27T15:26:45.825Z,3.50
2018-11-27T15:29:13.419Z,3.60
2018-11-27T15:31:40.992Z,3.70
2018-11-27T15:34:08.598Z,3.80
2018-11-27T15:36:37.114Z,3.90
2018-11-27T15:39:05.693Z,4.00
2018-11-27T15:41:33.287Z,4.00
2018-11-27T15:44:00.872Z,4.00
2018-11-27T15:46:28.643Z,4.00
2018-11-27T15:48:56.211Z,4.10
2018-11-27T15:51:23.799Z,4.10
2018-11-27T15:53:51.554Z,4.10
2018-11-27T15:56:19.081Z,4.10
2018-11-27T15:58:46.633Z,4.10
2018-11-27T16:01:14.355Z,4.20
2018-11-27T16:03:41.926Z,4.20
2018-11-27T16:06:09.498Z,4.20
2018-11-27T16:08:37.027Z,4.10
2018-11-27T16:11:04.807Z,4.10
2018-11-27T16:13:32.367Z,4.10
2018-11-27T16:15:59.943Z,4.00
2018-11-27T16:18:27.561Z,4.00
2018-11-27T16:20:55.121Z,3.80
2018-11-27T16:23:22.691Z,3.80
2018-11-27T16:25:50.254Z,3.90
2018-11-27T16:28:17.812Z,3.90
2018-11-27T16:30:45.476Z,4.00
2018-11-27T16:33:13.028Z,4.00
2018-11-27T16:35:40.554Z,4.10
2018-11-27T16:38:08.047Z,4.10
2018-11-27T16:40:36.267Z,4.00
2018-11-27T16:43:03.800Z,4.00
2018-11-27T16:45:31.323Z,4.00
2018-11-27T16:47:58.909Z,4.00
2018-11-27T16:50:26.492Z,4.10
2018-11-27T16:52:55.969Z,4.10
2018-11-27T16:55:23.937Z,4.10
2018-11-27T16:57:51.651Z,4.10
2018-11-27T17:00:20.750Z,4.20
2018-11-27T17:02:48.789Z,4.20
2018-11-27T17:05:16.320Z,4.20
2018-11-27T17:07:43.957Z,4.20
2018-11-27T17:10:12.100Z,4.20
2018-11-27T17:12:39.730Z,4.20
2018-11-27T17:15:09.220Z,4.10
2018-11-27T17:17:36.853Z,4.10
2018-11-27T17:20:05.092Z,4.10
2018-11-27T17:22:32.741Z,4.10
2018-11-27T17:25:00.589Z,4.00
2018-11-27T17:27:28.241Z,4.00
2018-11-27T17:29:55.922Z,4.00
2018-11-27T17:32:23.445Z,4.10
2018-11-27T17:34:51.025Z,4.10
2018-11-27T17:37:18.584Z,4.20
2018-11-27T17:39:46.151Z,4.00
2018-11-27T17:42:13.729Z,4.00
2018-11-27T17:44:41.392Z,4.00
2018-11-27T17:47:08.949Z,4.10
2018-11-27T17:49:36.511Z,4.10
2018-11-27T17:52:04.314Z,4.10
2018-11-27T17:54:31.966Z,4.10
2018-11-27T17:56:59.517Z,4.10
2018-11-27T17:59:27.079Z,4.10
2018-11-27T18:01:54.718Z,4.10
2018-11-27T18:04:23.201Z,4.10
2018-11-27T18:06:50.869Z,4.10
2018-11-27T18:09:18.453Z,4.10
2018-11-27T18:11:45.983Z,4.10
2018-11-27T18:14:13.656Z,4.00
2018-11-27T18:16:41.235Z,4.00
2018-11-27T18:19:08.969Z,4.00
2018-11-27T18:21:36.518Z,4.00
2018-11-27T18:24:04.155Z,4.00
2018-11-27T18:26:31.789Z,3.90
2018-11-27T18:28:59.311Z,4.00
2018-11-27T18:31:27.021Z,4.00
2018-11-27T18:33:54.742Z,4.00
2018-11-27T18:36:25.874Z,4.00
2018-11-27T18:38:49.932Z,3.90
2018-11-27T18:41:17.723Z,3.90
2018-11-27T18:43:46.816Z,3.90
2018-11-27T18:46:15.479Z,4.00
2018-11-27T18:48:47.118Z,3.80
2018-11-27T18:51:14.693Z,3.70
2018-11-27T19:10:20.413Z,3.80
2018-11-27T19:12:48.360Z,3.70
2018-11-27T19:15:19.722Z,3.80
2018-11-27T19:17:47.959Z,3.80
2018-11-27T19:20:15.902Z,3.90
2018-11-27T19:24:12.901Z,3.90
2018-11-27T19:26:40.516Z,3.80
2018-11-27T19:29:08.102Z,3.80
2018-11-27T19:31:35.908Z,3.80
2018-11-27T19:34:03.529Z,3.80
2018-11-27T19:36:31.082Z,3.70
2018-11-27T19:38:58.689Z,3.70
2018-11-27T19:41:26.398Z,3.80
2018-11-27T19:43:54.040Z,3.80
2018-11-27T19:46:21.644Z,3.70
2018-11-27T19:48:53.434Z,3.80
2018-11-27T19:51:16.982Z,3.90
2018-11-27T19:53:44.700Z,3.80
2018-11-27T19:56:13.181Z,3.90
2018-11-27T19:58:41.487Z,3.80
2018-11-27T20:01:09.092Z,3.70
2018-11-27T20:03:36.852Z,3.70
2018-11-27T20:06:04.582Z,3.80
2018-11-27T20:08:32.115Z,3.80
2018-11-27T20:11:00.561Z,3.80
2018-11-27T20:13:28.160Z,3.80
2018-11-27T20:15:55.813Z,3.80
2018-11-27T20:18:24.488Z,3.80
2018-11-27T20:20:52.460Z,4.00
2018-11-27T20:23:20.108Z,4.00
2018-11-27T20:25:47.775Z,4.10
2018-11-27T20:28:15.442Z,4.10
2018-11-27T20:30:43.113Z,4.00
2018-11-27T20:33:11.003Z,4.10
2018-11-27T20:35:38.882Z,4.10
2018-11-27T20:38:07.419Z,4.00
2018-11-27T20:40:35.028Z,4.00
2018-11-27T20:43:02.638Z,3.90
2018-11-27T20:45:30.222Z,3.80
2018-11-27T20:47:58.662Z,3.80
2018-11-27T20:50:26.586Z,3.80
2018-11-27T20:52:55.269Z,3.80
2018-11-27T20:55:23.057Z,3.90
2018-11-27T20:57:52.072Z,4.00
2018-11-27T21:00:22.871Z,4.00
2018-11-27T21:02:51.137Z,4.10
2018-11-27T21:05:18.799Z,4.20
2018-11-27T21:07:47.287Z,4.20
2018-11-27T21:10:15.773Z,4.10
2018-11-27T21:12:43.816Z,4.10
2018-11-27T21:15:14.640Z,4.20
2018-11-27T21:17:42.298Z,4.10
2018-11-27T21:20:10.475Z,4.10
2018-11-27T21:22:38.236Z,4.10
2018-11-27T21:25:11.547Z,4.20
2018-11-27T21:27:39.401Z,4.20
2018-11-27T21:30:11.147Z,4.20
2018-11-27T21:32:39.876Z,4.10
2018-11-27T21:35:08.247Z,4.10
2018-11-27T21:37:36.226Z,4.00
2018-11-27T21:40:04.318Z,4.10
2018-11-27T21:42:32.278Z,4.10
2018-11-27T21:45:00.833Z,4.00
2018-11-27T21:47:28.517Z,3.80
2018-11-27T21:49:56.236Z,3.70
2018-11-27T21:52:24.039Z,3.60
2018-11-27T21:54:51.813Z,3.60
2018-11-27T21:57:19.886Z,3.60
2018-11-27T21:59:48.253Z,3.60
2018-11-27T22:02:16.214Z,3.70
2018-11-27T22:04:43.771Z,3.70
2018-11-27T22:07:11.328Z,3.70
2018-11-27T22:09:38.877Z,3.80
2018-11-27T22:12:06.531Z,3.70
2018-11-27T22:14:34.157Z,3.80
2018-11-27T22:17:01.769Z,3.80
2018-11-27T22:19:29.293Z,3.80
2018-11-27T22:21:56.841Z,3.70
2018-11-27T22:24:24.467Z,3.60
2018-11-27T22:26:52.097Z,3.60
2018-11-27T22:29:19.683Z,3.70
2018-11-27T22:31:47.263Z,3.80
2018-11-27T22:50:52.700Z,4.00
2018-11-27T22:53:20.240Z,4.00
2018-11-27T22:55:47.803Z,4.00
2018-11-27T22:58:15.390Z,4.00
2018-11-27T23:00:48.357Z,3.90
2018-11-27T23:03:15.906Z,3.90
2018-11-27T23:05:43.438Z,3.90
2018-11-27T23:08:10.959Z,3.90
2018-11-27T23:10:39.225Z,4.00
2018-11-27T23:13:06.762Z,4.10
2018-11-27T23:15:34.348Z,4.20
2018-11-27T23:18:01.890Z,4.00
2018-11-27T23:20:29.451Z,3.90
2018-11-27T23:22:57.003Z,3.80
2018-11-27T23:25:24.564Z,3.70
2018-11-27T23:27:52.142Z,3.70
2018-11-27T23:30:20.855Z,3.70
2018-11-27T23:32:48.455Z,3.70
2018-11-27T23:35:16.149Z,3.60
2018-11-27T23:37:43.708Z,3.60
2018-11-27T23:40:11.867Z,3.60
2018-11-27T23:42:39.451Z,3.60
2018-11-27T23:45:09.754Z,3.50
2018-11-27T23:47:37.500Z,3.50
2018-11-27T23:50:05.574Z,3.50
2018-11-27T23:52:33.123Z,3.40
2018-11-27T23:55:00.646Z,3.50
2018-11-27T23:57:28.216Z,3.40
2018-11-27T23:59:55.847Z,3.40
